sensor_id;sensor_type;location;lat;lon;timestamp;pressure;altitude;pressure_sealevel;temperature;humidity
72157;BME280;60035;52.122;5.406;2023-02-01T00:02:10;102145.56;;;4.62;87.16
72157;BME280;60035;52.122;5.406;2023-02-01T00:04:37;102146.47;;;4.65;86.84
72157;BME280;60035;52.122;5.406;2023-02-01T00:07:03;102142.28;;;4.69;86.71
72157;BME280;60035;52.122;5.406;2023-02-01T00:09:30;102139.78;;;4.72;86.46
72157;BME280;60035;52.122;5.406;2023-02-01T00:11:57;102138.94;;;4.72;86.57
72157;BME280;60035;52.122;5.406;2023-02-01T00:14:25;102144.03;;;4.72;86.74
72157;BME280;60035;52.122;5.406;2023-02-01T00:16:52;102144.06;;;4.75;86.66
72157;BME280;60035;52.122;5.406;2023-02-01T00:19:18;102145.00;;;4.80;86.74
72157;BME280;60035;52.122;5.406;2023-02-01T00:21:45;102141.63;;;4.79;86.12
72157;BME280;60035;52.122;5.406;2023-02-01T00:24:12;102140.88;;;4.87;86.61
72157;BME280;60035;52.122;5.406;2023-02-01T00:26:44;102130.81;;;4.93;86.33
72157;BME280;60035;52.122;5.406;2023-02-01T00:29:13;102138.44;;;4.94;86.11
72157;BME280;60035;52.122;5.406;2023-02-01T00:31:41;102130.03;;;4.98;86.37
72157;BME280;60035;52.122;5.406;2023-02-01T00:34:11;102135.97;;;4.97;86.03
72157;BME280;60035;52.122;5.406;2023-02-01T00:36:38;102125.84;;;5.00;86.06
72157;BME280;60035;52.122;5.406;2023-02-01T00:39:05;102125.06;;;5.05;86.12
72157;BME280;60035;52.122;5.406;2023-02-01T00:41:32;102122.50;;;5.03;86.13
72157;BME280;60035;52.122;5.406;2023-02-01T00:43:58;102125.03;;;5.02;86.34
72157;BME280;60035;52.122;5.406;2023-02-01T00:46:25;102131.91;;;5.12;85.96
72157;BME280;60035;52.122;5.406;2023-02-01T00:48:51;102138.72;;;5.13;86.01
72157;BME280;60035;52.122;5.406;2023-02-01T00:51:21;102130.31;;;5.17;85.77
72157;BME280;60035;52.122;5.406;2023-02-01T00:53:48;102130.25;;;5.12;85.40
72157;BME280;60035;52.122;5.406;2023-02-01T00:56:15;102136.19;;;5.14;85.70
72157;BME280;60035;52.122;5.406;2023-02-01T00:58:42;102130.25;;;5.12;85.86
72157;BME280;60035;52.122;5.406;2023-02-01T01:01:14;102131.06;;;5.10;85.62
72157;BME280;60035;52.122;5.406;2023-02-01T01:03:46;102129.38;;;5.12;85.84
72157;BME280;60035;52.122;5.406;2023-02-01T01:06:19;102132.84;;;5.17;86.05
72157;BME280;60035;52.122;5.406;2023-02-01T01:08:47;102133.78;;;5.24;85.62
72157;BME280;60035;52.122;5.406;2023-02-01T01:11:21;102122.94;;;5.36;85.25
72157;BME280;60035;52.122;5.406;2023-02-01T01:13:49;102123.84;;;5.41;84.88
72157;BME280;60035;52.122;5.406;2023-02-01T01:16:15;102115.41;;;5.42;84.85
72157;BME280;60035;52.122;5.406;2023-02-01T01:18:43;102116.31;;;5.48;84.95
72157;BME280;60035;52.122;5.406;2023-02-01T01:21:12;102096.06;;;5.53;84.11
72157;BME280;60035;52.122;5.406;2023-02-01T01:23:39;102108.91;;;5.64;83.45
72157;BME280;60035;52.122;5.406;2023-02-01T01:26:26;102113.19;;;5.70;82.94
72157;BME280;60035;52.122;5.406;2023-02-01T01:28:55;102116.63;;;5.73;82.67
72157;BME280;60035;52.122;5.406;2023-02-01T01:31:23;102112.44;;;5.77;82.38
72157;BME280;60035;52.122;5.406;2023-02-01T01:33:52;102109.84;;;5.75;81.99
72157;BME280;60035;52.122;5.406;2023-02-01T01:36:20;102100.56;;;5.77;81.81
72157;BME280;60035;52.122;5.406;2023-02-01T01:38:47;102103.91;;;5.73;81.83
72157;BME280;60035;52.122;5.406;2023-02-01T01:41:26;102107.28;;;5.71;82.22
72157;BME280;60035;52.122;5.406;2023-02-01T01:44:02;102109.81;;;5.72;81.91
72157;BME280;60035;52.122;5.406;2023-02-01T01:46:37;102096.28;;;5.73;81.13
72157;BME280;60035;52.122;5.406;2023-02-01T01:49:11;102105.66;;;5.77;81.69
72157;BME280;60035;52.122;5.406;2023-02-01T01:51:44;102111.59;;;5.79;81.35
72157;BME280;60035;52.122;5.406;2023-02-01T01:54:17;102098.97;;;5.87;81.02
72157;BME280;60035;52.122;5.406;2023-02-01T01:56:48;102087.16;;;5.94;80.93
72157;BME280;60035;52.122;5.406;2023-02-01T01:59:17;102094.00;;;5.98;80.62
72157;BME280;60035;52.122;5.406;2023-02-01T02:01:45;102089.75;;;5.97;80.64
72157;BME280;60035;52.122;5.406;2023-02-01T02:04:12;102084.63;;;5.92;81.07
72157;BME280;60035;52.122;5.406;2023-02-01T02:09:27;102082.19;;;6.00;80.75
72157;BME280;60035;52.122;5.406;2023-02-01T02:11:53;102083.06;;;6.04;80.45
72157;BME280;60035;52.122;5.406;2023-02-01T02:14:22;102072.91;;;6.02;80.95
72157;BME280;60035;52.122;5.406;2023-02-01T02:17:01;102075.44;;;6.04;81.15
72157;BME280;60035;52.122;5.406;2023-02-01T02:22:55;102073.81;;;6.12;81.19
72157;BME280;60035;52.122;5.406;2023-02-01T02:36:21;102052.72;;;6.24;81.25
72157;BME280;60035;52.122;5.406;2023-02-01T02:39:05;102052.72;;;6.24;80.97
72157;BME280;60035;52.122;5.406;2023-02-01T02:41:44;102048.53;;;6.29;81.46
72157;BME280;60035;52.122;5.406;2023-02-01T02:48:18;102051.13;;;6.35;81.20
72157;BME280;60035;52.122;5.406;2023-02-01T02:50:49;102052.81;;;6.34;81.19
72157;BME280;60035;52.122;5.406;2023-02-01T02:54:13;102047.72;;;6.38;81.21
72157;BME280;60035;52.122;5.406;2023-02-01T02:57:00;102035.88;;;6.37;81.34
72157;BME280;60035;52.122;5.406;2023-02-01T02:59:47;102040.97;;;6.43;80.78
72157;BME280;60035;52.122;5.406;2023-02-01T03:02:33;102016.41;;;6.45;81.34
72157;BME280;60035;52.122;5.406;2023-02-01T03:05:19;101991.81;;;6.41;81.07
72157;BME280;60035;52.122;5.406;2023-02-01T03:12:51;101996.00;;;6.34;80.95
72157;BME280;60035;52.122;5.406;2023-02-01T03:15:30;102008.72;;;6.34;80.55
72157;BME280;60035;52.122;5.406;2023-02-01T03:18:01;102007.06;;;6.41;80.22
72157;BME280;60035;52.122;5.406;2023-02-01T03:20:29;102012.13;;;6.38;80.40
72157;BME280;60035;52.122;5.406;2023-02-01T03:22:57;102007.03;;;6.36;79.91
72157;BME280;60035;52.122;5.406;2023-02-01T03:25:28;102023.09;;;6.27;80.36
72157;BME280;60035;52.122;5.406;2023-02-01T03:28:01;102009.47;;;6.21;80.30
72157;BME280;60035;52.122;5.406;2023-02-01T03:30:36;102014.53;;;6.19;80.47
72157;BME280;60035;52.122;5.406;2023-02-01T03:33:06;102006.88;;;6.14;80.67
72157;BME280;60035;52.122;5.406;2023-02-01T03:36:01;102012.78;;;6.09;80.66
72157;BME280;60035;52.122;5.406;2023-02-01T03:43:48;102020.41;;;6.07;81.19
72157;BME280;60035;52.122;5.406;2023-02-01T03:46:29;102031.41;;;6.09;80.67
72157;BME280;60035;52.122;5.406;2023-02-01T03:49:02;102024.59;;;6.02;80.74
72157;BME280;60035;52.122;5.406;2023-02-01T03:51:30;102021.97;;;5.97;81.13
72157;BME280;60035;52.122;5.406;2023-02-01T03:53:58;102023.66;;;5.97;81.33
72157;BME280;60035;52.122;5.406;2023-02-01T03:56:28;102022.81;;;5.98;81.43
72157;BME280;60035;52.122;5.406;2023-02-01T03:58:55;102036.47;;;6.05;81.86
72157;BME280;60035;52.122;5.406;2023-02-01T04:01:27;102033.91;;;6.03;81.51
72157;BME280;60035;52.122;5.406;2023-02-01T04:03:54;102025.50;;;6.10;81.63
72157;BME280;60035;52.122;5.406;2023-02-01T04:06:21;102022.97;;;6.13;81.50
72157;BME280;60035;52.122;5.406;2023-02-01T04:08:48;102025.50;;;6.15;81.14
72157;BME280;60035;52.122;5.406;2023-02-01T04:11:15;102022.97;;;6.12;81.50
72157;BME280;60035;52.122;5.406;2023-02-01T04:13:41;102016.22;;;6.17;81.39
72157;BME280;60035;52.122;5.406;2023-02-01T04:16:08;102011.16;;;6.20;81.18
72157;BME280;60035;52.122;5.406;2023-02-01T04:18:34;102020.53;;;6.26;81.10
72157;BME280;60035;52.122;5.406;2023-02-01T04:21:02;102023.03;;;6.24;81.11
72157;BME280;60035;52.122;5.406;2023-02-01T04:23:29;102024.75;;;6.24;81.00
72157;BME280;60035;52.122;5.406;2023-02-01T04:26:00;102039.19;;;6.26;81.53
72157;BME280;60035;52.122;5.406;2023-02-01T04:28:28;102037.53;;;6.31;80.97
72157;BME280;60035;52.122;5.406;2023-02-01T04:30:55;102055.41;;;6.39;80.58
72157;BME280;60035;52.122;5.406;2023-02-01T04:33:21;102041.84;;;6.42;80.61
72157;BME280;60035;52.122;5.406;2023-02-01T04:35:48;102040.97;;;6.40;80.19
72157;BME280;60035;52.122;5.406;2023-02-01T04:38:14;102015.53;;;6.40;80.53
72157;BME280;60035;52.122;5.406;2023-02-01T04:40:41;102044.34;;;6.37;80.13
72157;BME280;60035;52.122;5.406;2023-02-01T04:43:08;101994.34;;;6.41;80.18
72157;BME280;60035;52.122;5.406;2023-02-01T04:45:34;102021.50;;;6.42;80.04
72157;BME280;60035;52.122;5.406;2023-02-01T04:48:01;102014.66;;;6.38;80.05
72157;BME280;60035;52.122;5.406;2023-02-01T04:50:27;102017.19;;;6.30;80.23
72157;BME280;60035;52.122;5.406;2023-02-01T04:52:54;102025.63;;;6.26;80.42
72157;BME280;60035;52.122;5.406;2023-02-01T04:55:20;102017.06;;;6.16;80.57
72157;BME280;60035;52.122;5.406;2023-02-01T04:57:47;102010.25;;;6.12;80.82
72157;BME280;60035;52.122;5.406;2023-02-01T05:00:13;102013.69;;;6.19;80.76
72157;BME280;60035;52.122;5.406;2023-02-01T05:02:40;102019.59;;;6.13;80.86
72157;BME280;60035;52.122;5.406;2023-02-01T05:05:07;102019.59;;;6.13;80.73
72157;BME280;60035;52.122;5.406;2023-02-01T05:07:34;102011.06;;;6.11;81.07
72157;BME280;60035;52.122;5.406;2023-02-01T05:10:00;102017.00;;;6.10;81.39
72157;BME280;60035;52.122;5.406;2023-02-01T05:12:27;102016.16;;;6.09;81.40
72157;BME280;60035;52.122;5.406;2023-02-01T05:15:12;102014.44;;;6.07;81.61
72157;BME280;60035;52.122;5.406;2023-02-01T05:17:38;102007.69;;;6.07;81.38
72157;BME280;60035;52.122;5.406;2023-02-01T05:20:07;101997.47;;;6.04;81.35
72157;BME280;60035;52.122;5.406;2023-02-01T05:22:34;102005.97;;;6.05;81.61
72157;BME280;60035;52.122;5.406;2023-02-01T05:25:00;102000.84;;;6.03;81.89
72157;BME280;60035;52.122;5.406;2023-02-01T05:27:29;102006.81;;;6.05;82.15
72157;BME280;60035;52.122;5.406;2023-02-01T05:29:56;102016.16;;;6.06;82.09
72157;BME280;60035;52.122;5.406;2023-02-01T05:32:23;102011.06;;;6.06;82.17
72157;BME280;60035;52.122;5.406;2023-02-01T05:34:49;102017.84;;;6.07;81.86
72157;BME280;60035;52.122;5.406;2023-02-01T05:37:16;102015.31;;;6.09;81.82
72157;BME280;60035;52.122;5.406;2023-02-01T05:39:42;102018.69;;;6.09;82.17
72157;BME280;60035;52.122;5.406;2023-02-01T05:42:09;102016.16;;;6.11;81.99
72157;BME280;60035;52.122;5.406;2023-02-01T05:44:36;102017.84;;;6.09;81.99
72157;BME280;60035;52.122;5.406;2023-02-01T05:47:02;102014.50;;;6.14;81.99
72157;BME280;60035;52.122;5.406;2023-02-01T05:49:29;102024.69;;;6.16;81.57
72157;BME280;60035;52.122;5.406;2023-02-01T05:51:55;102033.13;;;6.13;81.85
72157;BME280;60035;52.122;5.406;2023-02-01T05:54:25;102019.59;;;6.14;81.95
72157;BME280;60035;52.122;5.406;2023-02-01T05:56:51;102023.00;;;6.16;82.19
72157;BME280;60035;52.122;5.406;2023-02-01T05:59:18;102022.16;;;6.17;81.78
72157;BME280;60035;52.122;5.406;2023-02-01T06:01:45;102028.94;;;6.19;82.33
72157;BME280;60035;52.122;5.406;2023-02-01T06:04:11;102027.28;;;6.22;81.93
72157;BME280;60035;52.122;5.406;2023-02-01T06:06:38;102022.22;;;6.25;81.92
72157;BME280;60035;52.122;5.406;2023-02-01T06:09:04;102031.56;;;6.26;81.94
72157;BME280;60035;52.122;5.406;2023-02-01T06:11:31;102022.25;;;6.30;82.12
72157;BME280;60035;52.122;5.406;2023-02-01T06:13:59;102026.47;;;6.29;81.68
72157;BME280;60035;52.122;5.406;2023-02-01T06:16:26;102030.72;;;6.29;81.59
72157;BME280;60035;52.122;5.406;2023-02-01T06:18:52;102024.75;;;6.28;82.08
72157;BME280;60035;52.122;5.406;2023-02-01T06:21:20;102019.72;;;6.30;82.26
72157;BME280;60035;52.122;5.406;2023-02-01T06:23:55;102019.72;;;6.31;81.96
72157;BME280;60035;52.122;5.406;2023-02-01T06:26:23;102032.41;;;6.28;82.15
72157;BME280;60035;52.122;5.406;2023-02-01T06:28:50;102021.38;;;6.26;82.46
72157;BME280;60035;52.122;5.406;2023-02-01T06:31:17;102033.19;;;6.20;82.16
72157;BME280;60035;52.122;5.406;2023-02-01T06:33:44;102031.47;;;6.15;82.58
72157;BME280;60035;52.122;5.406;2023-02-01T06:36:13;102046.69;;;6.11;82.70
72157;BME280;60035;52.122;5.406;2023-02-01T06:38:39;102039.03;;;6.09;82.92
72157;BME280;60035;52.122;5.406;2023-02-01T06:41:06;102031.34;;;6.03;83.14
72157;BME280;60035;52.122;5.406;2023-02-01T06:43:33;102040.69;;;6.03;83.28
72157;BME280;60035;52.122;5.406;2023-02-01T06:46:02;102053.28;;;5.95;83.45
72157;BME280;60035;52.122;5.406;2023-02-01T06:48:30;102030.38;;;5.92;83.50
72157;BME280;60035;52.122;5.406;2023-02-01T06:50:57;102055.00;;;5.94;83.47
72157;BME280;60035;52.122;5.406;2023-02-01T06:53:23;102050.72;;;5.93;83.09
72157;BME280;60035;52.122;5.406;2023-02-01T06:55:53;102054.94;;;5.91;83.77
72157;BME280;60035;52.122;5.406;2023-02-01T06:58:20;102054.09;;;5.89;83.54
72157;BME280;60035;52.122;5.406;2023-02-01T07:00:46;102053.28;;;5.92;83.81
72157;BME280;60035;52.122;5.406;2023-02-01T07:03:13;102052.44;;;5.94;83.91
72157;BME280;60035;52.122;5.406;2023-02-01T07:05:39;102064.25;;;5.91;83.86
72157;BME280;60035;52.122;5.406;2023-02-01T07:08:06;102045.63;;;5.92;83.98
72157;BME280;60035;52.122;5.406;2023-02-01T07:10:34;102061.78;;;5.97;84.21
72157;BME280;60035;52.122;5.406;2023-02-01T07:13:00;102040.63;;;5.98;83.70
72157;BME280;60035;52.122;5.406;2023-02-01T07:15:27;102037.31;;;6.02;84.16
72157;BME280;60035;52.122;5.406;2023-02-01T07:17:54;102050.03;;;6.05;83.98
72157;BME280;60035;52.122;5.406;2023-02-01T07:20:22;102045.78;;;6.04;84.04
72157;BME280;60035;52.122;5.406;2023-02-01T07:22:54;102048.31;;;6.04;83.86
72157;BME280;60035;52.122;5.406;2023-02-01T07:25:21;102035.59;;;6.04;83.73
72157;BME280;60035;52.122;5.406;2023-02-01T07:27:47;102023.72;;;6.00;83.76
72157;BME280;60035;52.122;5.406;2023-02-01T07:30:17;102049.13;;;6.00;84.17
72157;BME280;60035;52.122;5.406;2023-02-01T07:32:43;102036.41;;;5.98;83.95
72157;BME280;60035;52.122;5.406;2023-02-01T07:35:10;102046.53;;;5.95;84.00
72157;BME280;60035;52.122;5.406;2023-02-01T07:37:36;102039.75;;;5.97;84.07
72157;BME280;60035;52.122;5.406;2023-02-01T07:40:03;102044.03;;;6.00;84.38
72157;BME280;60035;52.122;5.406;2023-02-01T07:42:30;102034.75;;;6.02;84.03
72157;BME280;60035;52.122;5.406;2023-02-01T07:44:57;102029.69;;;6.04;83.94
72157;BME280;60035;52.122;5.406;2023-02-01T07:47:33;102041.56;;;6.05;83.68
72157;BME280;60035;52.122;5.406;2023-02-01T07:49:59;102036.47;;;6.06;83.88
72157;BME280;60035;52.122;5.406;2023-02-01T07:52:29;102040.75;;;6.07;83.54
72157;BME280;60035;52.122;5.406;2023-02-01T07:54:55;102047.50;;;6.07;83.51
72157;BME280;60035;52.122;5.406;2023-02-01T07:57:22;102044.06;;;6.03;83.36
72157;BME280;60035;52.122;5.406;2023-02-01T07:59:48;102046.59;;;6.03;83.58
72157;BME280;60035;52.122;5.406;2023-02-01T08:02:34;102055.09;;;6.04;83.63
72157;BME280;60035;52.122;5.406;2023-02-01T08:05:01;102056.78;;;6.03;83.48
72157;BME280;60035;52.122;5.406;2023-02-01T08:07:27;102082.25;;;6.06;83.45
72157;BME280;60035;52.122;5.406;2023-02-01T08:09:53;102067.03;;;6.12;83.53
72157;BME280;60035;52.122;5.406;2023-02-01T08:12:20;102079.75;;;6.12;83.20
72157;BME280;60035;52.122;5.406;2023-02-01T08:14:46;102074.66;;;6.12;83.06
72157;BME280;60035;52.122;5.406;2023-02-01T08:17:13;102071.25;;;6.10;83.47
72157;BME280;60035;52.122;5.406;2023-02-01T08:19:39;102078.91;;;6.13;83.32
72157;BME280;60035;52.122;5.406;2023-02-01T08:22:06;102067.06;;;6.14;83.55
72157;BME280;60035;52.122;5.406;2023-02-01T08:24:33;102061.94;;;6.12;83.38
72157;BME280;60035;52.122;5.406;2023-02-01T08:27:01;102010.25;;;6.13;83.49
72157;BME280;60035;52.122;5.406;2023-02-01T08:29:28;102044.19;;;6.14;83.69
72157;BME280;60035;52.122;5.406;2023-02-01T08:31:55;102055.28;;;6.24;83.37
72157;BME280;60035;52.122;5.406;2023-02-01T08:34:21;102040.00;;;6.25;83.55
72157;BME280;60035;52.122;5.406;2023-02-01T08:36:48;102038.34;;;6.26;83.56
72157;BME280;60035;52.122;5.406;2023-02-01T08:39:15;102040.88;;;6.26;83.19
72157;BME280;60035;52.122;5.406;2023-02-01T08:41:41;102047.63;;;6.24;83.43
72157;BME280;60035;52.122;5.406;2023-02-01T08:44:27;102040.00;;;6.24;83.54
72157;BME280;60035;52.122;5.406;2023-02-01T08:46:54;102038.34;;;6.26;83.07
72157;BME280;60035;52.122;5.406;2023-02-01T08:49:20;102032.44;;;6.31;83.32
72157;BME280;60035;52.122;5.406;2023-02-01T08:51:47;102040.16;;;6.44;83.34
72157;BME280;60035;52.122;5.406;2023-02-01T08:54:13;102041.94;;;6.54;82.88
72157;BME280;60035;52.122;5.406;2023-02-01T08:56:40;102036.00;;;6.58;82.65
72157;BME280;60035;52.122;5.406;2023-02-01T08:59:06;102030.91;;;6.57;82.42
72157;BME280;60035;52.122;5.406;2023-02-01T09:01:32;102040.25;;;6.58;82.85
72157;BME280;60035;52.122;5.406;2023-02-01T09:04:01;102033.50;;;6.64;82.58
72157;BME280;60035;52.122;5.406;2023-02-01T09:06:27;102032.69;;;6.67;82.41
72157;BME280;60035;52.122;5.406;2023-02-01T09:08:54;102034.34;;;6.68;82.16
72157;BME280;60035;52.122;5.406;2023-02-01T09:11:20;102029.31;;;6.76;81.90
72157;BME280;60035;52.122;5.406;2023-02-01T09:13:47;102022.59;;;6.87;82.06
72157;BME280;60035;52.122;5.406;2023-02-01T09:16:14;102022.69;;;7.03;81.61
72157;BME280;60035;52.122;5.406;2023-02-01T09:18:41;102022.72;;;7.20;81.51
72157;BME280;60035;52.122;5.406;2023-02-01T09:21:27;102017.69;;;7.33;80.74
72157;BME280;60035;52.122;5.406;2023-02-01T09:23:53;102015.16;;;7.33;79.85
72157;BME280;60035;52.122;5.406;2023-02-01T09:26:20;102010.91;;;7.42;80.45
72157;BME280;60035;52.122;5.406;2023-02-01T09:28:55;102017.72;;;7.47;78.71
72157;BME280;60035;52.122;5.406;2023-02-01T09:31:22;102021.13;;;7.51;78.68
72157;BME280;60035;52.122;5.406;2023-02-01T09:33:48;102030.47;;;7.47;78.05
72157;BME280;60035;52.122;5.406;2023-02-01T09:36:15;102026.19;;;7.42;78.06
72157;BME280;60035;52.122;5.406;2023-02-01T09:38:41;102024.50;;;7.39;78.10
72157;BME280;60035;52.122;5.406;2023-02-01T09:47:14;102019.41;;;7.34;78.61
72157;BME280;60035;52.122;5.406;2023-02-01T09:49:51;102038.06;;;7.33;78.56
72157;BME280;60035;52.122;5.406;2023-02-01T09:52:20;102038.06;;;7.35;78.72
72157;BME280;60035;52.122;5.406;2023-02-01T09:54:55;102031.28;;;7.34;79.01
72157;BME280;60035;52.122;5.406;2023-02-01T09:57:40;102042.34;;;7.33;78.55
72157;BME280;60035;52.122;5.406;2023-02-01T10:00:16;102033.81;;;7.32;78.53
72157;BME280;60035;52.122;5.406;2023-02-01T10:02:44;102019.38;;;7.28;78.62
72157;BME280;60035;52.122;5.406;2023-02-01T10:05:18;102030.41;;;7.27;78.95
72157;BME280;60035;52.122;5.406;2023-02-01T10:08:04;102028.69;;;7.23;79.10
72157;BME280;60035;52.122;5.406;2023-02-01T10:10:49;102021.06;;;7.22;79.17
72157;BME280;60035;52.122;5.406;2023-02-01T10:16:17;102004.91;;;7.20;80.09
72157;BME280;60035;52.122;5.406;2023-02-01T10:18:58;102014.25;;;7.16;80.88
72157;BME280;60035;52.122;5.406;2023-02-01T10:21:53;102006.56;;;7.11;80.84
72157;BME280;60035;52.122;5.406;2023-02-01T10:27:21;102025.19;;;6.95;83.52
72157;BME280;60035;52.122;5.406;2023-02-01T10:29:55;102033.63;;;6.81;84.46
72157;BME280;60035;52.122;5.406;2023-02-01T10:32:34;102028.44;;;6.71;85.77
72157;BME280;60035;52.122;5.406;2023-02-01T10:35:09;102019.09;;;6.66;86.13
72157;BME280;60035;52.122;5.406;2023-02-01T10:37:41;102018.25;;;6.64;86.41
72157;BME280;60035;52.122;5.406;2023-02-01T10:40:23;102026.72;;;6.65;86.66
72157;BME280;60035;52.122;5.406;2023-02-01T10:42:53;102016.53;;;6.66;86.96
72157;BME280;60035;52.122;5.406;2023-02-01T10:45:21;102027.59;;;6.69;86.81
72157;BME280;60035;52.122;5.406;2023-02-01T10:47:51;102013.22;;;6.74;86.20
72157;BME280;60035;52.122;5.406;2023-02-01T10:53:21;102014.09;;;6.85;85.30
72157;BME280;60035;52.122;5.406;2023-02-01T10:55:52;102002.25;;;6.90;84.79
72157;BME280;60035;52.122;5.406;2023-02-01T10:58:31;101998.03;;;6.95;84.75
72157;BME280;60035;52.122;5.406;2023-02-01T11:01:04;102007.41;;;7.04;83.74
72157;BME280;60035;52.122;5.406;2023-02-01T11:03:34;102002.34;;;7.12;83.15
72157;BME280;60035;52.122;5.406;2023-02-01T11:06:09;101998.97;;;7.19;83.02
72157;BME280;60035;52.122;5.406;2023-02-01T11:08:48;101994.72;;;7.26;82.18
72157;BME280;60035;52.122;5.406;2023-02-01T11:11:16;101993.06;;;7.28;82.28
72157;BME280;60035;52.122;5.406;2023-02-01T11:13:58;101982.88;;;7.32;81.34
72157;BME280;60035;52.122;5.406;2023-02-01T11:16:30;101983.72;;;7.34;81.83
72157;BME280;60035;52.122;5.406;2023-02-01T11:18:59;101999.03;;;7.33;82.04
72157;BME280;60035;52.122;5.406;2023-02-01T11:21:26;101983.69;;;7.30;82.25
72157;BME280;60035;52.122;5.406;2023-02-01T11:23:52;101985.41;;;7.29;81.58
72157;BME280;60035;52.122;5.406;2023-02-01T11:26:29;101982.03;;;7.32;81.94
72157;BME280;60035;52.122;5.406;2023-02-01T11:29:04;101993.06;;;7.39;81.61
72157;BME280;60035;52.122;5.406;2023-02-01T11:31:35;101993.06;;;7.40;81.60
72157;BME280;60035;52.122;5.406;2023-02-01T11:34:09;101992.22;;;7.43;81.68
72157;BME280;60035;52.122;5.406;2023-02-01T11:36:39;101999.88;;;7.46;80.99
72157;BME280;60035;52.122;5.406;2023-02-01T11:39:20;102001.59;;;7.47;80.95
72157;BME280;60035;52.122;5.406;2023-02-01T11:42:00;101995.63;;;7.53;81.07
72157;BME280;60035;52.122;5.406;2023-02-01T11:44:38;101988.84;;;7.56;80.93
72157;BME280;60035;52.122;5.406;2023-02-01T11:49:56;101991.44;;;7.76;80.54
72157;BME280;60035;52.122;5.406;2023-02-01T11:53:02;101973.59;;;7.79;80.30
72157;BME280;60035;52.122;5.406;2023-02-01T11:58:37;101985.50;;;7.82;79.80
72157;BME280;60035;52.122;5.406;2023-02-01T12:01:30;101965.09;;;7.87;79.09
72157;BME280;60035;52.122;5.406;2023-02-01T12:06:54;101976.13;;;8.01;79.15
72157;BME280;60035;52.122;5.406;2023-02-01T12:17:59;101963.38;;;8.15;78.21
72157;BME280;60035;52.122;5.406;2023-02-01T12:20:44;101969.31;;;8.17;78.05
72157;BME280;60035;52.122;5.406;2023-02-01T12:23:34;101961.69;;;8.14;78.00
72157;BME280;60035;52.122;5.406;2023-02-01T12:29:31;101970.19;;;8.05;77.88
72157;BME280;60035;52.122;5.406;2023-02-01T12:32:11;101957.44;;;8.02;77.53
72157;BME280;60035;52.122;5.406;2023-02-01T12:41:06;101966.78;;;8.00;78.20
72157;BME280;60035;52.122;5.406;2023-02-01T12:43:36;101965.94;;;7.99;78.75
72157;BME280;60035;52.122;5.406;2023-02-01T12:46:12;101971.03;;;7.95;78.46
72157;BME280;60035;52.122;5.406;2023-02-01T12:51:18;101989.75;;;7.91;78.71
72157;BME280;60035;52.122;5.406;2023-02-01T12:53:55;101969.34;;;7.89;78.58
72157;BME280;60035;52.122;5.406;2023-02-01T12:56:32;101952.34;;;7.91;78.22
72157;BME280;60035;52.122;5.406;2023-02-01T12:59:04;101955.75;;;7.90;78.30
72157;BME280;60035;52.122;5.406;2023-02-01T13:01:55;101951.50;;;7.94;78.43
72157;BME280;60035;52.122;5.406;2023-02-01T13:04:32;101964.25;;;7.95;78.31
72157;BME280;60035;52.122;5.406;2023-02-01T13:12:19;101959.13;;;8.00;78.47
72157;BME280;60035;52.122;5.406;2023-02-01T13:14:53;101951.50;;;7.97;78.34
72157;BME280;60035;52.122;5.406;2023-02-01T13:17:26;101965.94;;;7.95;78.12
72157;BME280;60035;52.122;5.406;2023-02-01T13:25:15;101963.41;;;7.90;78.53
72157;BME280;60035;52.122;5.406;2023-02-01T13:27:43;101957.44;;;7.91;78.58
72157;BME280;60035;52.122;5.406;2023-02-01T13:30:25;101968.50;;;7.90;78.76
72157;BME280;60035;52.122;5.406;2023-02-01T13:36:34;101972.72;;;7.90;78.84
72157;BME280;60035;52.122;5.406;2023-02-01T13:39:43;101956.59;;;7.91;78.90
72157;BME280;60035;52.122;5.406;2023-02-01T13:42:13;101986.34;;;7.93;78.60
72157;BME280;60035;52.122;5.406;2023-02-01T13:44:45;101972.75;;;7.94;78.67
72157;BME280;60035;52.122;5.406;2023-02-01T13:47:29;101992.31;;;7.95;78.64
72157;BME280;60035;52.122;5.406;2023-02-01T13:50:02;101982.94;;;7.99;78.64
72157;BME280;60035;52.122;5.406;2023-02-01T13:52:40;101964.22;;;8.01;78.75
72157;BME280;60035;52.122;5.406;2023-02-01T13:57:42;101976.97;;;8.09;78.39
72157;BME280;60035;52.122;5.406;2023-02-01T14:00:48;101973.59;;;8.10;78.00
72157;BME280;60035;52.122;5.406;2023-02-01T14:03:22;101978.69;;;8.12;77.67
72157;BME280;60035;52.122;5.406;2023-02-01T14:08:35;101976.97;;;8.18;77.56
72157;BME280;60035;52.122;5.406;2023-02-01T14:11:03;101990.56;;;8.22;77.44
72157;BME280;60035;52.122;5.406;2023-02-01T14:21:28;101978.66;;;8.13;78.57
72157;BME280;60035;52.122;5.406;2023-02-01T14:32:01;101961.69;;;8.03;79.43
72157;BME280;60035;52.122;5.406;2023-02-01T14:34:37;101964.25;;;8.03;79.63
72157;BME280;60035;52.122;5.406;2023-02-01T14:42:22;101975.28;;;8.04;79.82
72157;BME280;60035;52.122;5.406;2023-02-01T14:44:52;101968.50;;;7.99;79.69
72157;BME280;60035;52.122;5.406;2023-02-01T14:52:41;101967.63;;;7.99;80.46
72157;BME280;60035;52.122;5.406;2023-02-01T14:55:12;101979.53;;;7.97;80.29
72157;BME280;60035;52.122;5.406;2023-02-01T14:57:41;101963.38;;;7.93;81.77
72157;BME280;60035;52.122;5.406;2023-02-01T15:00:19;101971.88;;;7.81;83.10
72157;BME280;60035;52.122;5.406;2023-02-01T15:02:47;101971.03;;;7.75;83.58
72157;BME280;60035;52.122;5.406;2023-02-01T15:05:32;101985.47;;;7.68;83.72
72157;BME280;60035;52.122;5.406;2023-02-01T15:08:06;101990.56;;;7.66;84.32
72157;BME280;60035;52.122;5.406;2023-02-01T15:10:42;101988.03;;;7.65;84.27
72157;BME280;60035;52.122;5.406;2023-02-01T15:13:24;101988.03;;;7.70;84.44
72157;BME280;60035;52.122;5.406;2023-02-01T15:16:07;101996.53;;;7.75;84.13
72157;BME280;60035;52.122;5.406;2023-02-01T15:18:36;101993.13;;;7.76;84.18
72157;BME280;60035;52.122;5.406;2023-02-01T15:21:03;101996.53;;;7.75;83.84
72157;BME280;60035;52.122;5.406;2023-02-01T15:24:09;101984.63;;;7.78;83.98